CheckWX is a tool to help pilots better visualize weather data.  It is not intended as a substitute for an official pre-flight weather briefing.

00:02:32 UTC

CYQR METAR
Regina International Airport
Regina, Canada
Current

1 hour ago

CYQR 192300Z 14007KT 15SM FEW130 FEW270 M22/M25 A3052 RMK AC1CI1 AC TR CI TR SLP407
Observed
Jan-19 @ 23:00 UTC
Wind
  • 140° at 7 KTS
Visibility
15 SM
Flight Rules
VFR
Cloud Levels
  • Few at 13,000' AGL
  • Few at 27,000' AGL
Temperature
-22°C / -8°F
Dewpoint
-25°C / -13°F
Humidity
77%
Altimeter
30.52" Hg
Pressure
1033.52 hPa
Previous

2 hours ago

CYQR 192200Z 14006KT 15SM FEW270 M20/M24 A3052 RMK CI1 SLP406
Observed
Jan-19 @ 22:00 UTC
Wind
  • 140° at 6 KTS
Visibility
15 SM
Flight Rules
VFR
Cloud Levels
  • Few at 27,000' AGL
Temperature
-20°C / -4°F
Dewpoint
-24°C / -11°F
Humidity
71%
Altimeter
30.52" Hg
Pressure
1033.52 hPa
Previous

3 hours ago

CYQR 192100Z 21003KT 15SM FEW130 M20/M24 A3051 RMK AC1 AC TR SLP404
Observed
Jan-19 @ 21:00 UTC
Wind
  • 210° at 3 KTS
Visibility
15 SM
Flight Rules
VFR
Cloud Levels
  • Few at 13,000' AGL
Temperature
-20°C / -4°F
Dewpoint
-24°C / -11°F
Humidity
71%
Altimeter
30.51" Hg
Pressure
1033.22 hPa